createdAt,value
2023-03-02T00:01:08.594Z,90.20
2023-03-02T00:03:18.429Z,90.62
2023-03-02T00:05:22.107Z,90.79
2023-03-02T00:07:30.589Z,91.06
2023-03-02T00:09:34.345Z,91.24
2023-03-02T00:11:39.624Z,91.06
2023-03-02T00:13:44.323Z,91.53
2023-03-02T00:15:47.971Z,91.53
2023-03-02T00:17:51.661Z,91.80
2023-03-02T00:20:10.112Z,92.30
2023-03-02T00:22:13.791Z,92.03
2023-03-02T00:24:17.460Z,91.88
2023-03-02T00:26:21.308Z,91.99
2023-03-02T00:28:24.992Z,92.15
2023-03-02T00:30:28.873Z,92.48
2023-03-02T00:32:32.642Z,91.94
2023-03-02T00:34:37.104Z,92.34
2023-03-02T00:36:42.527Z,92.02
2023-03-02T00:38:46.360Z,92.25
2023-03-02T00:40:51.991Z,91.73
2023-03-02T00:42:55.500Z,92.02
2023-03-02T00:45:01.697Z,91.88
2023-03-02T00:47:05.347Z,91.66
2023-03-02T00:49:08.958Z,91.55
2023-03-02T00:51:13.976Z,91.86
2023-03-02T00:53:21.785Z,91.83
2023-03-02T00:55:38.952Z,91.93
2023-03-02T00:57:42.965Z,91.72
2023-03-02T00:59:46.841Z,91.99
2023-03-02T01:02:08.162Z,92.37
2023-03-02T01:04:20.488Z,92.35
2023-03-02T01:06:24.300Z,92.17
2023-03-02T01:08:29.435Z,92.74
2023-03-02T01:10:33.765Z,92.87
2023-03-02T01:12:39.545Z,93.03
2023-03-02T01:14:47.222Z,93.67
2023-03-02T01:16:51.234Z,93.39
2023-03-02T01:18:54.928Z,93.33
2023-03-02T01:21:05.505Z,93.76
2023-03-02T01:23:09.111Z,93.83
2023-03-02T01:25:14.628Z,93.67
2023-03-02T01:27:18.311Z,94.15
2023-03-02T01:29:22.188Z,94.17
2023-03-02T01:31:27.045Z,94.00
2023-03-02T01:33:31.947Z,94.37
2023-03-02T01:35:35.548Z,94.55
2023-03-02T01:37:39.163Z,95.33
2023-03-02T01:39:42.715Z,95.11
2023-03-02T01:41:48.281Z,95.95
2023-03-02T01:43:52.173Z,95.92
2023-03-02T01:45:57.594Z,96.43
2023-03-02T01:48:29.457Z,96.62
2023-03-02T01:50:33.445Z,96.84
2023-03-02T01:52:39.239Z,96.87
2023-03-02T01:54:45.002Z,97.36
2023-03-02T01:56:52.607Z,97.15
2023-03-02T01:59:02.766Z,97.22
2023-03-02T02:01:15.898Z,97.03
2023-03-02T02:03:24.412Z,97.59
2023-03-02T02:05:28.456Z,97.55
2023-03-02T02:07:32.334Z,98.20
2023-03-02T02:09:39.135Z,98.42
2023-03-02T02:11:44.353Z,98.89
2023-03-02T02:13:50.083Z,98.79
2023-03-02T02:15:53.872Z,99.55
2023-03-02T02:17:57.531Z,99.70
2023-03-02T02:20:10.391Z,99.91
2023-03-02T02:22:22.662Z,99.75
2023-03-02T02:24:30.949Z,99.56
2023-03-02T02:26:42.000Z,99.82
2023-03-02T02:28:58.052Z,99.99
2023-03-02T02:31:09.119Z,99.33
2023-03-02T02:33:18.024Z,99.51
2023-03-02T02:35:27.384Z,99.80
2023-03-02T02:37:35.693Z,99.71
2023-03-02T02:39:43.185Z,100.00
2023-03-02T02:41:50.674Z,100.00
2023-03-02T02:43:55.088Z,100.00
2023-03-02T02:46:00.362Z,100.00
2023-03-02T02:48:03.619Z,100.00
2023-03-02T02:50:08.221Z,100.00
2023-03-02T02:52:16.968Z,100.00
2023-03-02T02:54:21.436Z,100.00
2023-03-02T02:56:24.713Z,100.00
2023-03-02T02:58:35.567Z,100.00
2023-03-02T03:00:39.496Z,100.00
2023-03-02T03:02:48.894Z,100.00
2023-03-02T03:04:52.710Z,100.00
2023-03-02T03:06:58.450Z,100.00
2023-03-02T03:09:03.323Z,100.00
2023-03-02T03:11:14.321Z,100.00
2023-03-02T03:13:17.854Z,100.00
2023-03-02T03:15:23.721Z,100.00
2023-03-02T03:17:27.133Z,100.00
2023-03-02T03:19:35.441Z,98.75
2023-03-02T03:21:38.857Z,98.20
2023-03-02T03:23:42.532Z,98.50
2023-03-02T03:25:45.821Z,98.81
2023-03-02T03:27:49.277Z,99.26
2023-03-02T03:29:52.751Z,99.28
2023-03-02T03:31:59.603Z,99.61
2023-03-02T03:34:03.522Z,99.55
2023-03-02T03:36:10.529Z,99.64
2023-03-02T03:38:14.162Z,99.86
2023-03-02T03:40:18.780Z,99.82
2023-03-02T03:42:24.277Z,100.00
2023-03-02T03:44:29.032Z,99.73
2023-03-02T03:46:32.929Z,100.00
2023-03-02T03:48:38.240Z,99.70
2023-03-02T03:50:41.958Z,99.51
2023-03-02T03:52:45.296Z,99.39
2023-03-02T03:54:55.973Z,99.89
2023-03-02T03:56:59.232Z,99.65
2023-03-02T03:59:07.569Z,100.00
2023-03-02T04:01:15.848Z,100.00
2023-03-02T04:03:20.129Z,100.00
2023-03-02T04:05:25.095Z,100.00
2023-03-02T04:07:30.084Z,100.00
2023-03-02T04:09:38.012Z,100.00
2023-03-02T04:11:45.022Z,100.00
2023-03-02T04:13:49.550Z,100.00
2023-03-02T04:15:52.905Z,100.00
2023-03-02T04:17:56.345Z,100.00
2023-03-02T04:20:00.654Z,100.00
2023-03-02T04:22:05.617Z,100.00
2023-03-02T04:24:11.272Z,100.00
2023-03-02T04:26:14.761Z,100.00
2023-03-02T04:28:18.101Z,100.00
2023-03-02T04:30:25.026Z,100.00
2023-03-02T04:32:28.410Z,100.00
2023-03-02T04:34:33.087Z,100.00
2023-03-02T04:36:39.142Z,100.00
2023-03-02T04:38:47.117Z,100.00
2023-03-02T04:40:50.512Z,100.00
2023-03-02T04:42:53.812Z,100.00
2023-03-02T04:44:57.262Z,100.00
2023-03-02T04:47:00.680Z,100.00
2023-03-02T04:49:04.547Z,100.00
2023-03-02T04:51:08.542Z,99.70
2023-03-02T04:53:12.531Z,97.15
2023-03-02T04:55:21.066Z,95.43
2023-03-02T04:57:24.404Z,94.56
2023-03-02T04:59:29.469Z,93.75
2023-03-02T05:01:32.835Z,93.46
2023-03-02T05:03:36.302Z,93.10
2023-03-02T05:05:39.854Z,92.71
2023-03-02T05:07:43.172Z,92.33
2023-03-02T05:09:46.399Z,92.03
2023-03-02T05:11:51.178Z,92.11
2023-03-02T05:13:56.501Z,92.00
2023-03-02T05:15:59.753Z,91.96
2023-03-02T05:18:04.132Z,91.77
2023-03-02T05:20:08.972Z,91.90
2023-03-02T05:22:12.246Z,91.90
2023-03-02T05:24:15.901Z,91.72
2023-03-02T05:26:19.884Z,91.83
2023-03-02T05:28:26.288Z,92.36
2023-03-02T05:30:31.003Z,92.74
2023-03-02T05:32:34.386Z,92.68
2023-03-02T05:34:37.717Z,93.02
2023-03-02T05:36:41.048Z,92.88
2023-03-02T05:38:44.598Z,93.23
2023-03-02T05:40:48.662Z,93.64
2023-03-02T05:42:51.930Z,93.71
2023-03-02T05:44:56.583Z,94.09
2023-03-02T05:46:59.922Z,94.33
2023-03-02T05:49:03.256Z,94.61
2023-03-02T05:51:07.065Z,94.33
2023-03-02T05:53:10.458Z,94.45
2023-03-02T05:55:14.312Z,94.63
2023-03-02T05:57:17.681Z,94.91
2023-03-02T05:59:20.958Z,94.89
2023-03-02T06:01:25.580Z,95.04
2023-03-02T06:03:29.128Z,94.88
2023-03-02T06:05:32.391Z,94.63
2023-03-02T06:07:35.607Z,94.07
2023-03-02T06:09:39.266Z,93.76
2023-03-02T06:11:42.712Z,93.13
2023-03-02T06:13:46.145Z,93.15
2023-03-02T06:15:49.448Z,92.76
2023-03-02T06:17:54.171Z,91.63
2023-03-02T06:19:57.538Z,91.41
2023-03-02T06:22:00.830Z,91.48
2023-03-02T06:24:04.151Z,90.99
2023-03-02T06:26:11.608Z,90.52
2023-03-02T06:28:14.920Z,90.54
2023-03-02T06:30:19.752Z,90.50
2023-03-02T06:32:23.492Z,90.17
2023-03-02T06:34:29.558Z,90.23
2023-03-02T06:36:33.649Z,89.98
2023-03-02T06:38:37.235Z,88.84
2023-03-02T06:40:40.686Z,88.56
2023-03-02T06:42:44.471Z,88.96
2023-03-02T06:44:48.498Z,88.47
2023-03-02T06:46:52.165Z,88.93
2023-03-02T06:48:55.921Z,88.61
2023-03-02T06:51:00.959Z,88.80
2023-03-02T06:53:04.632Z,89.02
2023-03-02T06:55:09.216Z,89.82
2023-03-02T06:57:12.805Z,89.83
2023-03-02T06:59:16.432Z,90.56
2023-03-02T07:01:20.478Z,91.21
2023-03-02T07:03:24.132Z,91.85
2023-03-02T07:05:28.221Z,92.26
2023-03-02T07:07:33.051Z,93.72
2023-03-02T07:09:37.382Z,94.13
2023-03-02T07:11:41.025Z,94.85
2023-03-02T07:13:44.654Z,95.30
2023-03-02T07:15:48.097Z,95.29
2023-03-02T07:17:51.715Z,95.86
2023-03-02T07:19:56.340Z,96.32
2023-03-02T07:22:00.097Z,96.20
2023-03-02T07:24:05.495Z,96.20
2023-03-02T07:26:09.061Z,95.89
2023-03-02T07:28:13.369Z,96.76
2023-03-02T07:30:21.409Z,96.91
2023-03-02T07:32:25.925Z,97.26
2023-03-02T07:34:30.173Z,98.90
2023-03-02T07:36:34.021Z,99.15
2023-03-02T07:38:39.287Z,99.10
2023-03-02T07:40:45.391Z,100.00
2023-03-02T07:42:49.556Z,100.00
2023-03-02T07:44:54.498Z,100.00
2023-03-02T07:46:58.851Z,100.00
2023-03-02T07:49:02.706Z,100.00
2023-03-02T07:51:08.276Z,100.00
2023-03-02T07:53:11.979Z,100.00
2023-03-02T07:55:15.685Z,100.00
2023-03-02T07:57:20.780Z,100.00
2023-03-02T07:59:24.723Z,100.00
2023-03-02T08:01:29.365Z,100.00
2023-03-02T08:03:33.246Z,100.00
2023-03-02T08:05:37.044Z,100.00
2023-03-02T08:07:41.332Z,100.00
2023-03-02T08:09:45.354Z,100.00
2023-03-02T08:11:49.170Z,100.00
2023-03-02T08:13:54.344Z,100.00
2023-03-02T08:16:00.934Z,100.00
2023-03-02T08:18:05.209Z,100.00
2023-03-02T08:20:10.665Z,100.00
2023-03-02T08:22:14.213Z,100.00
2023-03-02T08:24:18.172Z,100.00
2023-03-02T08:26:23.120Z,100.00
2023-03-02T08:28:26.689Z,100.00
2023-03-02T08:30:31.785Z,100.00
2023-03-02T08:32:35.615Z,100.00
2023-03-02T08:34:39.234Z,100.00
2023-03-02T08:36:44.203Z,100.00
2023-03-02T08:38:49.156Z,100.00
2023-03-02T08:40:52.929Z,100.00
2023-03-02T08:42:57.607Z,100.00
2023-03-02T08:45:01.180Z,100.00
2023-03-02T08:47:06.268Z,100.00
2023-03-02T08:49:09.735Z,100.00
2023-03-02T08:51:16.102Z,100.00
2023-03-02T08:53:19.803Z,100.00
2023-03-02T08:55:23.884Z,100.00
2023-03-02T08:57:27.754Z,100.00
2023-03-02T08:59:31.409Z,100.00
2023-03-02T09:01:37.971Z,100.00
2023-03-02T09:03:43.549Z,100.00
2023-03-02T09:05:47.497Z,100.00
2023-03-02T09:07:51.297Z,100.00
2023-03-02T09:09:55.043Z,100.00
2023-03-02T09:11:58.583Z,100.00
2023-03-02T09:14:02.536Z,100.00
2023-03-02T09:16:08.856Z,100.00
2023-03-02T09:18:12.596Z,100.00
2023-03-02T09:20:17.797Z,100.00
2023-03-02T09:22:21.003Z,100.00
2023-03-02T09:24:24.394Z,100.00
2023-03-02T09:26:28.531Z,100.00
2023-03-02T09:28:32.618Z,100.00
2023-03-02T09:30:36.146Z,100.00
2023-03-02T09:32:39.831Z,100.00
2023-03-02T09:34:43.789Z,100.00
2023-03-02T09:36:48.972Z,100.00
2023-03-02T09:38:53.031Z,100.00
2023-03-02T09:41:14.747Z,100.00
2023-03-02T09:43:34.455Z,98.78
2023-03-02T09:45:59.600Z,99.25
2023-03-02T09:48:16.389Z,99.41
2023-03-02T09:50:32.971Z,98.78
2023-03-02T09:52:46.590Z,98.77
2023-03-02T09:54:50.284Z,98.75
2023-03-02T09:56:57.457Z,98.07
2023-03-02T09:59:04.731Z,98.65
2023-03-02T10:01:16.564Z,98.50
2023-03-02T10:03:23.729Z,98.49
2023-03-02T10:05:32.739Z,98.54
2023-03-02T10:07:39.695Z,98.27
2023-03-02T10:09:43.991Z,97.77
2023-03-02T10:12:02.997Z,97.90
2023-03-02T10:14:14.252Z,97.58
2023-03-02T10:16:27.660Z,96.69
2023-03-02T10:18:37.491Z,96.44
2023-03-02T10:20:51.181Z,96.32
2023-03-02T10:23:02.208Z,96.29
2023-03-02T10:25:22.208Z,96.04
2023-03-02T10:27:33.498Z,95.11
2023-03-02T10:29:49.283Z,94.49
2023-03-02T10:32:00.886Z,94.87
2023-03-02T10:34:04.574Z,95.58
2023-03-02T10:36:20.682Z,96.91
2023-03-02T10:38:26.921Z,98.21
2023-03-02T10:40:42.863Z,99.47
2023-03-02T10:42:46.711Z,99.59
2023-03-02T10:44:52.950Z,99.17
2023-03-02T10:46:56.785Z,99.29
2023-03-02T10:49:01.532Z,99.69
2023-03-02T10:51:05.373Z,99.90
2023-03-02T10:53:17.088Z,98.48
2023-03-02T10:55:22.208Z,97.46
2023-03-02T10:57:29.790Z,96.65
2023-03-02T10:59:43.821Z,96.48
2023-03-02T11:02:00.378Z,96.47
2023-03-02T11:04:04.343Z,96.09
2023-03-02T11:06:22.663Z,96.72
2023-03-02T11:08:28.311Z,96.00
2023-03-02T11:10:35.863Z,95.53
2023-03-02T11:12:39.577Z,96.69
2023-03-02T11:14:43.823Z,96.32
2023-03-02T11:16:49.335Z,93.61
2023-03-02T11:18:57.063Z,92.64
2023-03-02T11:21:05.687Z,92.66
2023-03-02T11:23:22.439Z,91.24
2023-03-02T11:25:31.197Z,90.82
2023-03-02T11:27:40.625Z,91.75
2023-03-02T11:29:48.940Z,89.89
2023-03-02T11:31:56.566Z,87.84
2023-03-02T11:34:17.375Z,88.42
2023-03-02T11:36:26.305Z,87.98
2023-03-02T11:38:34.057Z,87.75
2023-03-02T11:40:46.733Z,87.39
2023-03-02T11:42:52.903Z,86.66
2023-03-02T11:44:56.949Z,86.68
2023-03-02T11:47:02.823Z,86.58
2023-03-02T11:49:13.309Z,86.45
2023-03-02T11:51:23.439Z,85.79
2023-03-02T11:53:31.887Z,85.40
2023-03-02T11:55:42.372Z,85.48
2023-03-02T11:57:49.964Z,85.66
2023-03-02T11:59:57.231Z,86.00
2023-03-02T12:02:01.741Z,85.51
2023-03-02T12:04:11.286Z,83.43
2023-03-02T12:06:39.638Z,82.44
2023-03-02T12:08:45.471Z,81.67
2023-03-02T12:11:00.475Z,82.18
2023-03-02T12:13:20.094Z,80.60
2023-03-02T12:15:38.316Z,80.38
2023-03-02T12:17:42.029Z,80.93
2023-03-02T12:19:45.774Z,81.21
2023-03-02T12:22:00.036Z,81.60
2023-03-02T12:24:06.498Z,81.54
2023-03-02T12:26:25.856Z,81.28
2023-03-02T12:28:32.752Z,82.23
2023-03-02T12:30:37.918Z,82.00
2023-03-02T12:32:41.237Z,82.25
2023-03-02T12:34:53.164Z,82.72
2023-03-02T12:37:00.253Z,82.55
2023-03-02T12:39:18.564Z,82.22
2023-03-02T12:41:41.908Z,81.17
2023-03-02T12:43:57.272Z,81.90
2023-03-02T12:46:25.520Z,82.36
2023-03-02T12:48:32.395Z,83.08
2023-03-02T12:50:40.988Z,83.77
2023-03-02T12:52:45.168Z,83.68
2023-03-02T12:54:48.779Z,83.02
2023-03-02T12:57:02.780Z,83.08
2023-03-02T12:59:06.557Z,83.53
2023-03-02T13:01:23.866Z,84.00
2023-03-02T13:03:29.297Z,83.76
2023-03-02T13:05:36.055Z,83.01
2023-03-02T13:07:43.206Z,82.80
2023-03-02T13:09:56.604Z,82.81
2023-03-02T13:12:00.804Z,83.00
2023-03-02T13:14:18.709Z,82.19
2023-03-02T13:16:26.239Z,81.92
2023-03-02T13:18:32.645Z,81.25
2023-03-02T13:20:36.259Z,81.41
2023-03-02T13:22:40.216Z,82.03
2023-03-02T13:24:47.913Z,82.29
2023-03-02T13:26:57.125Z,82.43
2023-03-02T13:29:06.546Z,82.20
2023-03-02T13:31:21.727Z,82.92
2023-03-02T13:33:28.070Z,83.89
2023-03-02T13:35:34.566Z,84.57
2023-03-02T13:37:43.836Z,85.46
2023-03-02T13:39:56.235Z,85.86
2023-03-02T13:42:01.189Z,86.79
2023-03-02T13:44:20.038Z,86.20
2023-03-02T13:46:30.303Z,86.46
2023-03-02T13:48:35.397Z,86.56
2023-03-02T13:50:39.459Z,86.68
2023-03-02T13:52:43.020Z,86.31
2023-03-02T13:54:48.461Z,86.26
2023-03-02T13:56:52.457Z,85.39
2023-03-02T13:58:56.339Z,86.31
2023-03-02T14:01:00.036Z,85.51
2023-03-02T14:03:04.125Z,84.79
2023-03-02T14:05:17.364Z,84.41
2023-03-02T14:07:21.435Z,84.28
2023-03-02T14:09:27.395Z,84.55
2023-03-02T14:11:35.573Z,84.56
2023-03-02T14:13:43.329Z,85.34
2023-03-02T14:15:50.532Z,86.02
2023-03-02T14:17:54.008Z,86.14
2023-03-02T14:19:57.559Z,86.47
2023-03-02T14:22:02.579Z,86.62
2023-03-02T14:24:06.692Z,86.96
2023-03-02T14:26:25.138Z,87.69
2023-03-02T14:28:35.804Z,88.17
2023-03-02T14:30:41.814Z,88.44
2023-03-02T14:32:45.819Z,89.07
2023-03-02T14:34:49.356Z,89.13
2023-03-02T14:36:57.768Z,89.25
2023-03-02T14:39:06.977Z,89.61
2023-03-02T14:41:14.786Z,89.44
2023-03-02T14:43:19.082Z,88.84
2023-03-02T14:45:23.312Z,87.84
2023-03-02T14:47:26.826Z,87.74
2023-03-02T14:49:30.332Z,88.08
2023-03-02T14:51:36.996Z,87.95
2023-03-02T14:53:40.609Z,87.04
2023-03-02T14:55:46.289Z,87.50
2023-03-02T14:57:52.728Z,87.65
2023-03-02T15:00:00.005Z,87.78
2023-03-02T15:02:12.934Z,87.50
2023-03-02T15:04:26.497Z,87.34
2023-03-02T15:06:32.482Z,87.39
2023-03-02T15:08:36.466Z,87.62
2023-03-02T15:10:42.510Z,87.30
2023-03-02T15:12:48.269Z,87.77
2023-03-02T15:14:54.383Z,88.12
2023-03-02T15:16:57.778Z,88.82
2023-03-02T15:19:01.328Z,89.47
2023-03-02T15:21:04.978Z,89.91
2023-03-02T15:23:08.903Z,88.57
2023-03-02T15:25:13.091Z,88.08
2023-03-02T15:27:17.005Z,87.85
2023-03-02T15:29:22.603Z,88.12
2023-03-02T15:31:28.408Z,87.61
2023-03-02T15:33:32.166Z,87.09
2023-03-02T15:35:36.250Z,87.18
2023-03-02T15:37:40.115Z,87.52
2023-03-02T15:39:44.677Z,87.40
2023-03-02T15:41:48.278Z,87.78
2023-03-02T15:43:52.956Z,87.84
2023-03-02T15:45:58.282Z,88.08
2023-03-02T15:48:01.942Z,87.79
2023-03-02T15:50:06.296Z,87.91
2023-03-02T15:52:09.945Z,87.57
2023-03-02T15:54:13.809Z,87.13
2023-03-02T15:56:18.108Z,86.63
2023-03-02T15:58:22.462Z,86.34
2023-03-02T16:00:26.208Z,86.19
2023-03-02T16:02:31.958Z,85.87
2023-03-02T16:04:36.039Z,85.48
2023-03-02T16:06:39.979Z,85.70
2023-03-02T16:08:43.779Z,85.56
2023-03-02T16:10:57.807Z,85.33
2023-03-02T16:13:02.539Z,85.42
2023-03-02T16:15:07.518Z,85.14
2023-03-02T16:17:11.904Z,85.24
2023-03-02T16:19:19.430Z,85.21
2023-03-02T16:21:23.809Z,85.27
2023-03-02T16:23:27.393Z,84.30
2023-03-02T16:25:31.454Z,84.39
2023-03-02T16:27:35.193Z,84.11
2023-03-02T16:29:38.396Z,83.64
2023-03-02T16:31:42.730Z,83.26
2023-03-02T16:33:47.323Z,83.45
2023-03-02T16:35:52.283Z,83.75
2023-03-02T16:37:56.170Z,83.33
2023-03-02T16:39:59.843Z,82.92
2023-03-02T16:42:03.400Z,83.26
2023-03-02T16:44:07.666Z,83.18
2023-03-02T16:46:11.282Z,83.67
2023-03-02T16:48:15.230Z,83.46
2023-03-02T16:50:19.807Z,83.64
2023-03-02T16:52:25.011Z,83.98
2023-03-02T16:54:29.138Z,84.04
2023-03-02T16:56:32.959Z,83.71
2023-03-02T16:58:38.775Z,84.13
2023-03-02T17:00:42.900Z,83.92
2023-03-02T17:02:47.091Z,83.38
2023-03-02T17:04:50.961Z,83.77
2023-03-02T17:07:02.413Z,83.71
2023-03-02T17:09:07.635Z,84.33
2023-03-02T17:11:10.864Z,84.15
2023-03-02T17:13:16.661Z,84.24
2023-03-02T17:15:20.509Z,84.34
2023-03-02T17:17:24.101Z,84.63
2023-03-02T17:19:29.729Z,84.79
2023-03-02T17:21:33.955Z,85.03
2023-03-02T17:23:37.581Z,85.06
2023-03-02T17:25:42.691Z,85.33
2023-03-02T17:27:46.944Z,85.54
2023-03-02T17:29:51.523Z,85.86
2023-03-02T17:31:55.776Z,85.69
2023-03-02T17:33:59.946Z,85.68
2023-03-02T17:36:07.776Z,86.04
2023-03-02T17:38:11.688Z,85.85
2023-03-02T17:40:17.838Z,85.31
2023-03-02T17:42:23.427Z,85.81
2023-03-02T17:44:28.327Z,85.83
2023-03-02T17:46:32.819Z,85.64
2023-03-02T17:48:36.753Z,85.23
2023-03-02T17:50:41.215Z,84.51
2023-03-02T17:52:45.095Z,83.95
2023-03-02T17:54:49.523Z,83.72
2023-03-02T17:56:53.423Z,83.88
2023-03-02T17:59:01.892Z,83.52
2023-03-02T18:01:07.304Z,83.63
2023-03-02T18:03:11.581Z,83.49
2023-03-02T18:05:16.277Z,82.83
2023-03-02T18:07:21.342Z,82.11
2023-03-02T18:09:25.754Z,82.10
2023-03-02T18:11:29.344Z,81.77
2023-03-02T18:13:33.356Z,81.44
2023-03-02T18:15:39.688Z,80.73
2023-03-02T18:17:43.471Z,79.55
2023-03-02T18:19:47.573Z,78.97
2023-03-02T18:21:52.033Z,78.43
2023-03-02T18:23:56.146Z,78.01
2023-03-02T18:26:00.341Z,77.13
2023-03-02T18:28:04.049Z,76.54
2023-03-02T18:30:09.191Z,76.18
2023-03-02T18:32:15.706Z,75.87
2023-03-02T18:34:20.043Z,75.02
2023-03-02T18:36:24.797Z,74.72
2023-03-02T18:38:31.141Z,74.96
2023-03-02T18:40:35.232Z,75.07
2023-03-02T18:42:39.264Z,74.46
2023-03-02T18:44:43.052Z,74.70
2023-03-02T18:46:47.251Z,74.62
2023-03-02T18:48:53.115Z,74.05
2023-03-02T18:50:57.188Z,74.50
2023-03-02T18:53:01.779Z,74.44
2023-03-02T18:55:07.758Z,74.44
2023-03-02T18:57:12.108Z,74.44
2023-03-02T18:59:18.076Z,74.47
2023-03-02T19:01:22.482Z,74.24
2023-03-02T19:03:26.237Z,74.56
2023-03-02T19:05:31.366Z,74.34
2023-03-02T19:07:34.964Z,74.82
2023-03-02T19:09:38.739Z,74.84
2023-03-02T19:11:42.373Z,74.97
2023-03-02T19:13:46.171Z,74.63
2023-03-02T19:15:49.803Z,74.87
2023-03-02T19:17:53.785Z,74.64
2023-03-02T19:19:58.298Z,74.16
2023-03-02T19:22:06.621Z,74.14
2023-03-02T19:24:11.961Z,74.15
2023-03-02T19:26:16.197Z,74.63
2023-03-02T19:28:21.865Z,74.30
2023-03-02T19:30:27.806Z,73.83
2023-03-02T19:32:32.246Z,74.40
2023-03-02T19:34:36.125Z,74.21
2023-03-02T19:36:40.738Z,74.76
2023-03-02T19:38:46.172Z,74.62
2023-03-02T19:40:50.404Z,74.42
2023-03-02T19:42:55.053Z,74.55
2023-03-02T19:45:00.359Z,73.99
2023-03-02T19:47:04.376Z,74.22
2023-03-02T19:49:08.528Z,73.47
2023-03-02T19:51:13.678Z,73.42
2023-03-02T19:53:18.627Z,72.57
2023-03-02T19:55:25.413Z,73.02
2023-03-02T19:57:30.340Z,73.02
2023-03-02T19:59:36.794Z,72.93
2023-03-02T20:01:41.814Z,73.45
2023-03-02T20:10:30.373Z,73.49
2023-03-02T20:12:34.723Z,73.67
2023-03-02T20:14:39.868Z,73.04
2023-03-02T20:16:44.361Z,73.04
2023-03-02T20:18:49.625Z,73.20
2023-03-02T20:20:53.787Z,73.34
2023-03-02T20:22:58.218Z,73.35
2023-03-02T20:25:03.090Z,72.43
2023-03-02T20:27:09.787Z,72.52
2023-03-02T20:29:17.000Z,72.48
2023-03-02T20:31:21.468Z,72.53
2023-03-02T20:33:28.424Z,73.00
2023-03-02T20:35:36.998Z,73.69
2023-03-02T20:37:41.867Z,74.41
2023-03-02T20:39:48.429Z,75.12
2023-03-02T20:41:52.722Z,74.84
2023-03-02T20:43:59.900Z,76.34
2023-03-02T20:46:04.445Z,77.23
2023-03-02T20:48:09.722Z,78.55
2023-03-02T20:50:16.992Z,79.15
2023-03-02T20:52:22.874Z,79.58
2023-03-02T20:54:30.557Z,80.79
2023-03-02T20:56:36.955Z,81.30
2023-03-02T20:58:44.189Z,81.57
2023-03-02T21:00:50.195Z,82.52
2023-03-02T21:03:00.580Z,82.97
2023-03-02T21:05:06.447Z,82.94
2023-03-02T21:07:11.569Z,83.68
2023-03-02T21:09:17.290Z,83.96
2023-03-02T21:11:23.979Z,85.24
2023-03-02T21:13:29.985Z,85.39
2023-03-02T21:15:34.587Z,86.06
2023-03-02T21:17:40.509Z,86.60
2023-03-02T21:19:50.142Z,86.53
2023-03-02T21:21:55.584Z,87.09
2023-03-02T21:24:00.417Z,86.92
2023-03-02T21:26:05.408Z,87.18
2023-03-02T21:28:11.295Z,86.98
2023-03-02T21:30:20.981Z,87.15
2023-03-02T21:32:29.689Z,87.79
2023-03-02T21:34:38.315Z,87.58
2023-03-02T21:36:43.825Z,88.50
2023-03-02T21:38:47.776Z,88.89
2023-03-02T21:40:52.264Z,88.76
2023-03-02T21:42:57.310Z,88.85
2023-03-02T21:45:03.891Z,88.85
2023-03-02T21:47:09.529Z,88.62
2023-03-02T21:49:17.057Z,88.62
2023-03-02T21:51:23.110Z,88.40
2023-03-02T21:53:26.624Z,87.79
2023-03-02T21:55:32.291Z,87.49
2023-03-02T21:57:36.787Z,86.96
2023-03-02T21:59:41.199Z,86.76
2023-03-02T22:02:04.438Z,85.76
2023-03-02T22:04:09.114Z,85.35
2023-03-02T22:06:19.434Z,85.20
2023-03-02T22:08:25.188Z,85.31
2023-03-02T22:10:35.439Z,84.38
2023-03-02T22:12:39.481Z,84.56
2023-03-02T22:14:43.765Z,83.97
2023-03-02T22:16:48.573Z,83.52
2023-03-02T22:18:56.789Z,82.73
2023-03-02T22:21:00.945Z,82.86
2023-03-02T22:23:13.204Z,82.67
2023-03-02T22:25:20.505Z,82.55
2023-03-02T22:27:26.788Z,82.52
2023-03-02T22:29:34.544Z,81.77
2023-03-02T22:31:47.314Z,81.92
2023-03-02T22:33:51.862Z,81.25
2023-03-02T22:36:02.534Z,81.11
2023-03-02T22:38:13.339Z,80.89
2023-03-02T22:40:29.930Z,81.32
2023-03-02T22:42:33.696Z,80.97
2023-03-02T22:44:39.483Z,80.80
2023-03-02T22:46:44.744Z,80.30
2023-03-02T22:48:49.417Z,80.48
2023-03-02T22:50:54.434Z,80.33
2023-03-02T22:53:02.495Z,80.50
2023-03-02T22:55:36.060Z,80.85
2023-03-02T22:57:40.990Z,80.79
2023-03-02T22:59:45.897Z,80.70
2023-03-02T23:01:54.420Z,80.81
2023-03-02T23:04:10.689Z,80.72
2023-03-02T23:06:25.532Z,81.12
2023-03-02T23:08:31.186Z,81.03
2023-03-02T23:10:36.652Z,81.28
2023-03-02T23:12:49.012Z,80.95
2023-03-02T23:14:56.910Z,80.88
2023-03-02T23:17:03.557Z,81.00
2023-03-02T23:19:08.082Z,80.58
2023-03-02T23:21:25.517Z,80.58
2023-03-02T23:23:39.856Z,80.82
2023-03-02T23:25:45.693Z,80.94
2023-03-02T23:27:49.925Z,80.61
2023-03-02T23:29:56.786Z,80.79
2023-03-02T23:32:00.902Z,80.82
2023-03-02T23:34:07.160Z,80.60
2023-03-02T23:36:13.868Z,80.56
2023-03-02T23:38:19.529Z,80.59
2023-03-02T23:40:25.558Z,80.49
2023-03-02T23:42:32.514Z,80.15
2023-03-02T23:44:37.094Z,80.29
2023-03-02T23:46:40.929Z,79.61
2023-03-02T23:48:45.425Z,80.13
2023-03-02T23:50:51.062Z,79.68
2023-03-02T23:52:54.910Z,79.90
2023-03-02T23:54:59.480Z,79.39
2023-03-02T23:57:04.051Z,79.75
2023-03-02T23:59:12.811Z,79.79
